createdAt,value
2023-05-01T00:01:31.799Z,40.40
2023-05-01T00:04:07.828Z,40.50
2023-05-01T00:06:43.869Z,40.70
2023-05-01T00:09:19.807Z,40.80
2023-05-01T00:11:55.746Z,40.90
2023-05-01T00:14:31.620Z,41.00
2023-05-01T00:17:08.522Z,41.20
2023-05-01T00:19:44.389Z,41.40
2023-05-01T00:22:20.443Z,41.50
2023-05-01T00:24:56.273Z,41.80
2023-05-01T00:27:32.127Z,41.90
2023-05-01T00:30:08.650Z,42.00
2023-05-01T00:32:44.654Z,42.10
2023-05-01T00:35:20.557Z,42.10
2023-05-01T00:37:56.479Z,42.00
2023-05-01T00:40:32.510Z,41.90
2023-05-01T00:43:08.388Z,42.00
2023-05-01T00:45:46.220Z,42.40
2023-05-01T00:48:22.157Z,42.00
2023-05-01T00:51:00.894Z,42.10
2023-05-01T00:53:37.094Z,42.40
2023-05-01T00:56:12.952Z,42.40
2023-05-01T00:58:53.341Z,42.50
2023-05-01T01:01:29.612Z,42.70
2023-05-01T01:04:05.772Z,42.80
2023-05-01T01:07:37.216Z,42.80
2023-05-01T01:10:47.258Z,42.80
2023-05-01T01:13:56.113Z,43.00
2023-05-01T01:16:46.689Z,43.10
2023-05-01T01:19:53.160Z,43.20
2023-05-01T01:22:29.913Z,43.20
2023-05-01T01:25:34.061Z,43.30
2023-05-01T01:28:46.351Z,43.40
2023-05-01T01:31:47.751Z,43.50
2023-05-01T01:34:35.260Z,43.60
2023-05-01T01:37:26.364Z,43.80
2023-05-01T01:40:15.734Z,44.00
2023-05-01T01:43:03.920Z,44.20
2023-05-01T01:45:48.265Z,44.40
2023-05-01T01:48:31.632Z,44.60
2023-05-01T01:51:13.742Z,44.70
2023-05-01T01:53:54.178Z,44.80
2023-05-01T01:56:31.562Z,44.90
2023-05-01T01:59:10.212Z,45.00
2023-05-01T02:01:47.760Z,45.10
2023-05-01T02:04:25.927Z,45.20
2023-05-01T02:07:02.547Z,45.20
2023-05-01T02:09:39.380Z,45.30
2023-05-01T02:12:17.615Z,45.50
2023-05-01T02:14:54.593Z,45.40
2023-05-01T02:17:31.446Z,45.70
2023-05-01T02:20:10.978Z,45.50
2023-05-01T02:22:48.619Z,45.70
2023-05-01T02:25:24.794Z,45.70
2023-05-01T02:28:04.087Z,45.70
2023-05-01T02:30:40.398Z,45.80
2023-05-01T02:33:16.379Z,45.80
2023-05-01T02:35:52.313Z,45.90
2023-05-01T02:38:29.391Z,45.80
2023-05-01T02:41:08.666Z,45.80
2023-05-01T02:43:53.683Z,45.80
2023-05-01T02:46:36.946Z,45.80
2023-05-01T02:49:14.911Z,45.90
2023-05-01T02:51:51.396Z,46.00
2023-05-01T02:54:27.343Z,46.10
2023-05-01T02:57:05.399Z,46.10
2023-05-01T02:59:41.334Z,46.30
2023-05-01T03:02:17.513Z,46.20
2023-05-01T03:04:53.362Z,46.20
2023-05-01T03:07:35.002Z,46.30
2023-05-01T03:10:11.369Z,46.20
2023-05-01T03:12:47.305Z,46.10
2023-05-01T03:15:23.217Z,46.10
2023-05-01T03:17:59.260Z,46.30
2023-05-01T03:20:35.185Z,46.30
2023-05-01T03:23:12.819Z,46.40
2023-05-01T03:25:49.443Z,46.40
2023-05-01T03:28:25.390Z,46.50
2023-05-01T03:31:02.623Z,46.60
2023-05-01T03:33:40.222Z,47.10
2023-05-01T03:36:16.475Z,46.70
2023-05-01T03:38:54.253Z,46.70
2023-05-01T03:41:48.932Z,47.10
2023-05-01T03:44:32.554Z,46.80
2023-05-01T03:47:10.248Z,46.90
2023-05-01T03:49:49.905Z,47.00
2023-05-01T03:52:26.400Z,47.00
2023-05-01T03:55:02.449Z,47.10
2023-05-01T03:57:50.029Z,47.10
2023-05-01T04:00:26.954Z,47.00
2023-05-01T04:03:04.208Z,46.90
2023-05-01T04:05:42.237Z,46.70
2023-05-01T04:08:19.015Z,46.60
2023-05-01T04:10:54.908Z,46.50
2023-05-01T04:13:31.090Z,46.50
2023-05-01T04:16:07.776Z,46.50
2023-05-01T04:18:43.832Z,46.50
2023-05-01T04:21:19.702Z,46.50
2023-05-01T04:23:59.542Z,46.50
2023-05-01T04:26:35.786Z,46.50
2023-05-01T04:29:11.969Z,46.50
2023-05-01T04:31:47.950Z,46.50
2023-05-01T04:34:24.036Z,46.60
2023-05-01T04:37:02.086Z,46.60
2023-05-01T04:39:38.804Z,46.60
2023-05-01T04:42:14.782Z,46.60
2023-05-01T04:44:50.706Z,46.60
2023-05-01T04:47:27.809Z,46.60
2023-05-01T04:50:04.327Z,46.50
2023-05-01T04:52:40.929Z,46.30
2023-05-01T04:55:18.521Z,46.30
2023-05-01T04:58:16.839Z,46.10
2023-05-01T05:00:55.090Z,45.80
2023-05-01T05:03:33.076Z,45.50
2023-05-01T05:06:09.406Z,45.40
2023-05-01T05:08:45.491Z,45.20
2023-05-01T05:11:21.677Z,44.60
2023-05-01T05:14:10.726Z,44.00
2023-05-01T05:16:46.957Z,43.50
2023-05-01T05:19:23.122Z,43.20
2023-05-01T05:22:02.186Z,43.00
2023-05-01T05:24:41.023Z,42.80
2023-05-01T05:27:16.932Z,42.50
2023-05-01T05:29:53.156Z,42.30
2023-05-01T05:32:29.598Z,42.00
2023-05-01T05:35:06.526Z,41.90
2023-05-01T05:37:45.279Z,41.50
2023-05-01T05:40:21.983Z,41.20
2023-05-01T05:43:06.285Z,41.10
2023-05-01T05:45:43.087Z,41.00
2023-05-01T05:48:19.519Z,41.00
2023-05-01T05:50:56.088Z,41.10
2023-05-01T05:53:32.195Z,41.10
2023-05-01T05:56:08.302Z,41.20
2023-05-01T05:58:44.319Z,41.20
2023-05-01T06:01:20.330Z,41.40
2023-05-01T06:03:56.626Z,41.50
2023-05-01T06:06:34.704Z,41.50
2023-05-01T06:09:12.678Z,41.40
2023-05-01T06:11:48.646Z,41.40
2023-05-01T06:14:24.683Z,41.50
2023-05-01T06:17:01.565Z,41.70
2023-05-01T06:19:37.692Z,41.70
2023-05-01T06:22:17.550Z,41.90
2023-05-01T06:25:09.197Z,41.90
2023-05-01T06:27:45.825Z,41.90
2023-05-01T06:30:22.015Z,41.90
2023-05-01T06:32:58.072Z,42.00
2023-05-01T06:35:34.642Z,42.10
2023-05-01T06:38:10.603Z,42.20
2023-05-01T06:40:49.212Z,42.20
2023-05-01T06:43:30.619Z,42.20
2023-05-01T06:46:07.582Z,42.20
2023-05-01T06:48:43.546Z,42.10
2023-05-01T06:51:22.408Z,41.80
2023-05-01T06:53:59.376Z,41.40
2023-05-01T06:56:35.273Z,41.20
2023-05-01T06:59:11.267Z,41.10
2023-05-01T07:01:47.284Z,41.00
2023-05-01T07:04:23.897Z,40.90
2023-05-01T07:07:01.020Z,40.70
2023-05-01T07:09:37.036Z,40.60
2023-05-01T07:12:13.077Z,40.50
2023-05-01T07:14:49.094Z,40.40
2023-05-01T07:17:25.478Z,40.40
2023-05-01T07:20:01.559Z,40.40
2023-05-01T07:22:37.410Z,40.50
2023-05-01T07:25:14.235Z,40.60
2023-05-01T07:27:50.204Z,40.70
2023-05-01T07:30:26.372Z,40.80
2023-05-01T07:33:02.795Z,40.70
2023-05-01T07:35:38.777Z,40.40
2023-05-01T07:38:16.882Z,40.40
2023-05-01T07:40:53.805Z,40.10
2023-05-01T07:43:29.801Z,40.00
2023-05-01T07:46:06.184Z,39.90
2023-05-01T07:48:42.261Z,39.70
2023-05-01T07:51:19.054Z,39.50
2023-05-01T07:53:55.023Z,39.30
2023-05-01T07:56:31.512Z,39.30
2023-05-01T07:59:07.586Z,39.00
2023-05-01T08:01:43.564Z,38.80
2023-05-01T08:04:21.569Z,38.80
2023-05-01T08:06:57.587Z,38.60
2023-05-01T08:09:33.631Z,38.40
2023-05-01T08:12:09.559Z,38.20
2023-05-01T08:14:45.460Z,38.10
2023-05-01T08:17:21.544Z,37.80
2023-05-01T08:19:57.929Z,37.70
2023-05-01T08:22:34.380Z,37.40
2023-05-01T08:25:10.325Z,37.30
2023-05-01T08:27:46.400Z,37.30
2023-05-01T08:30:22.336Z,37.20
2023-05-01T08:32:58.301Z,37.10
2023-05-01T08:35:34.302Z,37.20
2023-05-01T08:38:11.797Z,36.80
2023-05-01T08:40:54.286Z,36.50
2023-05-01T08:43:33.719Z,36.30
2023-05-01T08:46:13.195Z,36.10
2023-05-01T08:48:50.744Z,35.90
2023-05-01T08:51:27.781Z,35.70
2023-05-01T08:54:05.358Z,35.40
2023-05-01T08:56:43.659Z,35.20
2023-05-01T08:59:22.355Z,34.80
2023-05-01T09:02:04.212Z,34.30
2023-05-01T09:04:41.995Z,34.20
2023-05-01T09:07:18.120Z,34.70
2023-05-01T09:09:54.326Z,34.50
2023-05-01T09:12:35.251Z,34.10
2023-05-01T09:15:12.484Z,34.00
2023-05-01T09:17:48.588Z,34.00
2023-05-01T09:20:24.747Z,33.90
2023-05-01T09:23:00.753Z,33.60
2023-05-01T09:25:37.060Z,33.50
2023-05-01T09:28:13.068Z,33.50
2023-05-01T09:30:48.975Z,33.10
2023-05-01T09:33:25.845Z,32.80
2023-05-01T09:36:03.030Z,32.60
2023-05-01T09:38:43.778Z,32.50
2023-05-01T09:41:23.413Z,32.20
2023-05-01T09:43:59.818Z,32.20
2023-05-01T09:46:43.891Z,32.20
2023-05-01T09:49:19.967Z,31.90
2023-05-01T09:52:11.500Z,31.90
2023-05-01T09:54:47.460Z,31.90
2023-05-01T09:57:38.254Z,32.00
2023-05-01T10:00:16.057Z,31.30
2023-05-01T10:02:53.090Z,31.00
2023-05-01T10:05:44.176Z,31.20
2023-05-01T10:08:20.202Z,31.00
2023-05-01T10:11:05.720Z,30.20
2023-05-01T10:13:42.268Z,30.10
2023-05-01T10:16:37.967Z,30.40
2023-05-01T10:19:19.962Z,30.70
2023-05-01T10:21:56.999Z,31.10
2023-05-01T10:24:33.351Z,30.70
2023-05-01T10:27:12.582Z,30.90
2023-05-01T10:29:51.172Z,31.00
2023-05-01T10:32:27.331Z,31.10
2023-05-01T10:35:10.270Z,31.10
2023-05-01T10:38:01.954Z,31.00
2023-05-01T10:40:43.691Z,30.70
2023-05-01T10:43:26.203Z,30.80
2023-05-01T10:46:08.136Z,30.40
2023-05-01T10:48:47.125Z,30.60
2023-05-01T10:51:27.845Z,30.40
2023-05-01T10:54:13.888Z,30.60
2023-05-01T10:56:50.027Z,29.40
2023-05-01T10:59:26.291Z,29.50
2023-05-01T11:02:22.237Z,29.20
2023-05-01T11:04:58.492Z,29.70
2023-05-01T11:07:35.360Z,29.90
2023-05-01T11:10:26.485Z,29.40
2023-05-01T11:13:02.395Z,29.20
2023-05-01T11:15:40.388Z,28.90
2023-05-01T11:18:16.452Z,29.20
2023-05-01T11:20:52.501Z,28.90
2023-05-01T11:23:28.551Z,28.70
2023-05-01T11:26:04.939Z,29.20
2023-05-01T11:28:42.446Z,29.10
2023-05-01T11:31:19.127Z,29.10
2023-05-01T11:34:01.609Z,29.10
2023-05-01T11:36:51.808Z,29.40
2023-05-01T11:39:28.598Z,29.00
2023-05-01T11:42:11.429Z,29.00
2023-05-01T11:45:12.626Z,29.00
2023-05-01T11:47:48.902Z,29.20
2023-05-01T11:50:35.442Z,29.20
2023-05-01T11:53:15.707Z,29.20
2023-05-01T11:55:52.029Z,29.40
2023-05-01T11:58:33.675Z,29.40
2023-05-01T12:01:09.794Z,29.10
2023-05-01T12:03:45.829Z,29.10
2023-05-01T12:06:21.823Z,29.10
2023-05-01T12:08:57.759Z,29.00
2023-05-01T12:11:34.971Z,29.20
2023-05-01T12:14:11.383Z,29.10
2023-05-01T12:16:48.243Z,29.10
2023-05-01T12:19:24.976Z,29.70
2023-05-01T12:22:08.510Z,29.40
2023-05-01T12:24:54.752Z,29.40
2023-05-01T12:27:32.726Z,29.20
2023-05-01T12:30:09.439Z,29.10
2023-05-01T12:32:45.637Z,29.00
2023-05-01T12:35:22.012Z,29.20
2023-05-01T12:37:59.505Z,29.00
2023-05-01T12:40:35.415Z,28.70
2023-05-01T12:43:11.438Z,29.20
2023-05-01T12:45:53.632Z,29.00
2023-05-01T12:48:31.733Z,28.90
2023-05-01T12:51:07.913Z,29.10
2023-05-01T12:53:44.397Z,28.40
2023-05-01T12:56:25.553Z,28.60
2023-05-01T12:59:01.466Z,28.90
2023-05-01T13:01:38.041Z,28.90
2023-05-01T13:04:22.003Z,28.90
2023-05-01T13:06:58.977Z,29.00
2023-05-01T13:09:34.906Z,28.90
2023-05-01T13:12:11.939Z,29.10
2023-05-01T13:14:48.452Z,29.30
2023-05-01T13:17:29.773Z,29.00
2023-05-01T13:20:06.903Z,28.70
2023-05-01T13:22:42.949Z,28.50
2023-05-01T13:25:20.680Z,28.70
2023-05-01T13:27:56.643Z,29.40
2023-05-01T13:30:33.823Z,28.90
2023-05-01T13:33:11.299Z,28.80
2023-05-01T13:35:47.298Z,29.60
2023-05-01T13:38:24.981Z,29.30
2023-05-01T13:41:00.902Z,29.30
2023-05-01T13:43:37.716Z,29.40
2023-05-01T13:46:16.346Z,29.60
2023-05-01T13:48:52.406Z,30.60
2023-05-01T13:51:28.320Z,31.70
2023-05-01T13:54:04.894Z,32.00
2023-05-01T13:56:41.352Z,33.10
2023-05-01T13:59:17.427Z,33.70
2023-05-01T14:01:53.404Z,34.60
2023-05-01T14:04:29.373Z,35.00
2023-05-01T14:07:05.555Z,35.60
2023-05-01T14:09:44.103Z,34.90
2023-05-01T14:12:26.750Z,35.90
2023-05-01T14:15:05.038Z,36.00
2023-05-01T14:17:41.052Z,36.10
2023-05-01T14:20:17.155Z,35.80
2023-05-01T14:22:53.541Z,37.40
2023-05-01T14:25:34.765Z,37.30
2023-05-01T14:28:14.058Z,37.00
2023-05-01T14:30:51.245Z,36.20
2023-05-01T14:33:27.482Z,35.90
2023-05-01T14:36:03.576Z,35.20
2023-05-01T14:38:41.498Z,35.60
2023-05-01T14:41:21.031Z,35.60
2023-05-01T14:43:57.322Z,35.00
2023-05-01T14:46:35.766Z,34.50
2023-05-01T14:49:21.046Z,34.50
2023-05-01T14:51:57.045Z,33.80
2023-05-01T14:54:45.398Z,33.20
2023-05-01T14:57:21.385Z,33.20
2023-05-01T14:59:57.300Z,32.70
2023-05-01T15:02:33.608Z,32.30
2023-05-01T15:05:10.060Z,33.20
2023-05-01T15:07:46.817Z,32.80
2023-05-01T15:10:25.956Z,32.60
2023-05-01T15:13:02.000Z,33.30
2023-05-01T15:15:37.896Z,32.70
2023-05-01T15:18:13.801Z,32.50
2023-05-01T15:20:49.759Z,32.10
2023-05-01T15:23:27.335Z,31.90
2023-05-01T15:26:03.925Z,32.70
2023-05-01T15:28:39.970Z,32.70
2023-05-01T15:31:19.319Z,32.80
2023-05-01T15:33:55.837Z,33.00
2023-05-01T15:36:32.756Z,33.90
2023-05-01T15:39:12.115Z,33.30
2023-05-01T15:41:48.034Z,33.20
2023-05-01T15:44:24.043Z,33.10
2023-05-01T15:47:00.057Z,33.30
2023-05-01T15:49:36.157Z,32.70
2023-05-01T15:52:12.148Z,32.50
2023-05-01T15:54:48.050Z,32.50
2023-05-01T15:57:24.993Z,32.70
2023-05-01T16:00:01.743Z,32.80
2023-05-01T16:02:42.680Z,32.30
2023-05-01T16:05:24.642Z,32.70
2023-05-01T16:08:01.640Z,33.60
2023-05-01T16:10:38.097Z,34.10
2023-05-01T16:13:14.830Z,34.40
2023-05-01T16:15:51.864Z,34.50
2023-05-01T16:18:27.804Z,34.20
2023-05-01T16:21:04.010Z,34.20
2023-05-01T16:23:40.286Z,34.30
2023-05-01T16:26:29.969Z,35.10
2023-05-01T16:29:08.199Z,35.20
2023-05-01T16:31:48.329Z,35.90
2023-05-01T16:34:26.835Z,35.80
2023-05-01T16:37:02.943Z,36.00
2023-05-01T16:39:39.114Z,35.50
2023-05-01T16:42:15.444Z,36.10
2023-05-01T16:44:51.414Z,36.10
2023-05-01T16:47:27.489Z,36.80
2023-05-01T16:50:08.410Z,38.90
2023-05-01T16:52:44.497Z,42.40
2023-05-01T16:55:21.085Z,46.40
2023-05-01T16:57:57.284Z,54.70
2023-05-01T17:00:33.382Z,58.70
2023-05-01T17:03:09.513Z,65.70
2023-05-01T17:05:45.531Z,73.20
2023-05-01T17:08:21.482Z,78.10
2023-05-01T17:10:57.457Z,81.30
2023-05-01T17:13:33.463Z,79.10
2023-05-01T17:16:10.344Z,80.00
2023-05-01T17:18:46.667Z,80.10
2023-05-01T17:21:24.678Z,78.90
2023-05-01T17:24:01.050Z,79.20
2023-05-01T17:26:36.956Z,73.80
2023-05-01T17:29:12.961Z,77.30
2023-05-01T17:31:49.031Z,76.10
2023-05-01T17:34:25.036Z,71.90
2023-05-01T17:37:00.896Z,74.80
2023-05-01T17:39:36.863Z,72.30
2023-05-01T17:42:12.783Z,73.00
2023-05-01T17:44:48.747Z,75.40
2023-05-01T17:47:26.085Z,72.50
2023-05-01T17:50:07.067Z,71.30
2023-05-01T17:52:45.093Z,70.70
2023-05-01T17:55:21.210Z,64.60
2023-05-01T17:57:57.128Z,58.60
2023-05-01T18:00:33.581Z,57.50
2023-05-01T18:03:09.581Z,57.00
2023-05-01T18:05:45.731Z,56.80
2023-05-01T18:08:21.596Z,54.10
2023-05-01T18:10:57.566Z,52.00
2023-05-01T18:13:38.066Z,50.70
2023-05-01T18:16:15.471Z,51.10
2023-05-01T18:18:51.578Z,52.90
2023-05-01T18:21:27.636Z,54.00
2023-05-01T18:24:04.179Z,56.40
2023-05-01T18:26:40.075Z,55.60
2023-05-01T18:29:15.990Z,56.90
2023-05-01T18:31:52.015Z,56.40
2023-05-01T18:34:27.893Z,59.00
2023-05-01T18:37:03.845Z,58.50
2023-05-01T18:39:39.868Z,58.30
2023-05-01T18:42:15.768Z,57.90
2023-05-01T18:44:51.961Z,60.30
2023-05-01T18:47:27.970Z,62.10
2023-05-01T18:50:05.671Z,63.90
2023-05-01T18:52:42.337Z,62.90
2023-05-01T18:55:18.650Z,63.50
2023-05-01T18:57:54.600Z,62.10
2023-05-01T19:00:30.736Z,63.30
2023-05-01T19:03:07.512Z,64.70
2023-05-01T19:05:43.743Z,66.00
2023-05-01T19:08:19.820Z,66.80
2023-05-01T19:10:55.693Z,65.30
2023-05-01T19:13:33.062Z,65.10
2023-05-01T19:16:08.968Z,65.60
2023-05-01T19:18:46.403Z,65.70
2023-05-01T19:21:24.472Z,64.70
2023-05-01T19:24:00.465Z,61.90
2023-05-01T19:26:36.324Z,61.60
2023-05-01T19:29:12.169Z,62.00
2023-05-01T19:31:48.323Z,62.30
2023-05-01T19:34:24.217Z,62.50
2023-05-01T19:37:01.983Z,62.90
2023-05-01T19:39:38.931Z,63.30
2023-05-01T19:42:15.208Z,63.60
2023-05-01T19:44:51.143Z,64.10
2023-05-01T19:47:27.105Z,64.40
2023-05-01T19:50:03.417Z,64.60
2023-05-01T19:52:39.538Z,64.90
2023-05-01T19:55:16.965Z,65.20
2023-05-01T19:57:52.845Z,65.70
2023-05-01T20:00:28.812Z,66.50
2023-05-01T20:03:05.474Z,67.10
2023-05-01T20:05:41.520Z,67.30
2023-05-01T20:08:17.415Z,67.60
2023-05-01T20:10:53.310Z,68.00
2023-05-01T20:13:29.424Z,68.70
2023-05-01T20:16:05.651Z,69.30
2023-05-01T20:18:41.664Z,70.00
2023-05-01T20:21:17.834Z,70.20
2023-05-01T20:23:54.470Z,70.70
2023-05-01T20:26:30.411Z,71.00
2023-05-01T20:29:06.464Z,71.50
2023-05-01T20:31:42.789Z,71.90
2023-05-01T20:34:19.729Z,71.90
2023-05-01T20:36:55.614Z,72.40
2023-05-01T20:39:31.475Z,72.90
2023-05-01T20:42:07.331Z,73.40
2023-05-01T20:44:43.279Z,73.70
2023-05-01T20:47:19.166Z,74.00
2023-05-01T20:49:56.608Z,74.20
2023-05-01T20:52:32.920Z,74.30
2023-05-01T20:55:09.563Z,74.10
2023-05-01T20:57:45.488Z,74.20
2023-05-01T21:00:21.509Z,74.20
2023-05-01T21:02:59.722Z,74.70
2023-05-01T21:05:35.834Z,75.70
2023-05-01T21:08:11.775Z,76.10
2023-05-01T21:10:47.745Z,75.50
2023-05-01T21:13:24.926Z,75.80
2023-05-01T21:16:01.122Z,75.90
2023-05-01T21:18:37.394Z,76.30
2023-05-01T21:21:15.737Z,76.50
2023-05-01T21:23:51.855Z,76.60
2023-05-01T21:26:29.425Z,76.40
2023-05-01T21:29:05.299Z,76.20
2023-05-01T21:31:41.250Z,76.00
2023-05-01T21:34:18.866Z,75.90
2023-05-01T21:36:54.751Z,75.80
2023-05-01T21:39:31.490Z,75.70
2023-05-01T21:42:07.687Z,75.80
2023-05-01T21:44:43.734Z,76.20
2023-05-01T21:47:19.833Z,76.60
2023-05-01T21:49:58.839Z,76.80
2023-05-01T21:52:35.553Z,76.70
2023-05-01T21:55:19.222Z,76.60
2023-05-01T21:57:58.252Z,76.50
2023-05-01T22:00:34.227Z,76.40
2023-05-01T22:03:10.879Z,76.40
2023-05-01T22:05:46.875Z,76.00
2023-05-01T22:08:23.590Z,76.10
2023-05-01T22:10:59.498Z,75.80
2023-05-01T22:13:35.394Z,75.60
2023-05-01T22:16:13.665Z,75.20
2023-05-01T22:18:50.543Z,75.00
2023-05-01T22:21:26.654Z,74.70
2023-05-01T22:24:03.070Z,74.60
2023-05-01T22:26:38.963Z,74.50
2023-05-01T22:29:14.859Z,74.70
2023-05-01T22:31:50.733Z,74.50
2023-05-01T22:34:26.953Z,74.30
2023-05-01T22:37:02.883Z,74.40
2023-05-01T22:39:38.786Z,74.20
2023-05-01T22:42:14.666Z,74.20
2023-05-01T22:44:50.586Z,74.20
2023-05-01T22:47:26.585Z,74.20
2023-05-01T22:50:02.704Z,74.30
2023-05-01T22:52:38.866Z,74.30
2023-05-01T22:55:15.846Z,74.10
2023-05-01T22:57:51.702Z,74.30
2023-05-01T23:00:27.659Z,74.30
2023-05-01T23:03:03.951Z,74.20
2023-05-01T23:05:39.909Z,74.40
2023-05-01T23:08:15.855Z,74.50
2023-05-01T23:10:51.738Z,74.50
2023-05-01T23:13:28.104Z,74.80
2023-05-01T23:16:04.643Z,74.90
2023-05-01T23:18:40.539Z,74.80
2023-05-01T23:21:19.817Z,74.80
2023-05-01T23:23:55.697Z,74.80
2023-05-01T23:26:32.961Z,74.80
2023-05-01T23:29:08.933Z,74.80
2023-05-01T23:31:47.474Z,74.80
2023-05-01T23:34:23.713Z,74.70
2023-05-01T23:36:59.587Z,74.70
2023-05-01T23:39:35.462Z,74.70
2023-05-01T23:42:11.325Z,74.80
2023-05-01T23:44:47.339Z,74.80
2023-05-01T23:47:23.476Z,74.80
2023-05-01T23:49:59.669Z,75.00
2023-05-01T23:52:36.255Z,74.90
2023-05-01T23:55:12.121Z,74.80
2023-05-01T23:57:48.117Z,74.80
